Time;durP1;ratioP1;P1;durP2;ratioP2;P2;SDS_P1;SDS_P2;PMS_P1;PMS_P2;Temp;Humidity;BMP_temperature;BMP_pressure;BME280_temperature;BME280_humidity;BME280_pressure;Samples;Min_cycle;Max_cycle;Signal;HPM_P1;HPM_P2
2023/12/09 00:00:46;;;;;;;30.27;12.88;;;;;;;9.67;99.03;100759.91;5112506;28;20137;-55
2023/12/09 00:03:13;;;;;;;37.50;14.60;;;;;;;9.65;99.38;100762.16;5112815;28;20058;-52
2023/12/09 00:05:41;;;;;;;34.60;7.07;;;;;;;9.62;100.00;100755.34;5109306;27;20040;-54
2023/12/09 00:08:08;;;;;;;31.67;6.40;;;;;;;9.65;100.00;100743.72;5062103;28;20044;-56
2023/12/09 00:10:36;;;;;;;27.20;6.32;;;;;;;9.46;100.00;100747.69;5094743;28;20063;-56
2023/12/09 00:13:04;;;;;;;32.90;5.95;;;;;;;9.35;100.00;100744.31;5074066;28;20047;-54
2023/12/09 00:15:31;;;;;;;34.22;5.80;;;;;;;9.35;100.00;100749.00;5065726;28;20451;-55
2023/12/09 00:17:59;;;;;;;32.38;5.70;;;;;;;9.44;100.00;100733.44;5109443;28;20054;-55
2023/12/09 00:20:27;;;;;;;37.30;6.28;;;;;;;9.47;100.00;100730.06;5081123;28;20059;-55
2023/12/09 00:22:57;;;;;;;37.65;5.78;;;;;;;9.47;100.00;100741.06;5091054;28;20063;-52
2023/12/09 00:25:27;;;;;;;27.35;5.80;;;;;;;9.41;100.00;100739.53;5101791;28;20047;-59
2023/12/09 00:27:54;;;;;;;25.15;5.97;;;;;;;9.41;100.00;100747.78;5078950;28;20044;-54
2023/12/09 00:30:22;;;;;;;35.58;6.18;;;;;;;9.52;100.00;100740.97;5084639;28;20581;-60
2023/12/09 00:32:50;;;;;;;32.95;5.20;;;;;;;9.63;100.00;100756.13;5089352;28;20052;-59
2023/12/09 00:35:18;;;;;;;29.88;5.50;;;;;;;9.58;99.66;100746.06;5079093;28;20515;-54
2023/12/09 00:37:48;;;;;;;34.50;6.18;;;;;;;9.58;99.70;100746.06;5095471;28;20055;-55
2023/12/09 00:40:17;;;;;;;26.02;4.80;;;;;;;9.53;99.61;100759.09;5101894;28;20043;-57
2023/12/09 00:42:46;;;;;;;27.83;4.25;;;;;;;9.42;100.00;100754.91;5087211;28;20055;-59
2023/12/09 00:45:14;;;;;;;32.03;5.68;;;;;;;9.46;100.00;100747.69;5106262;28;20054;-57
2023/12/09 00:47:42;;;;;;;22.73;4.20;;;;;;;9.47;100.00;100750.13;5093579;28;20059;-57
2023/12/09 00:50:09;;;;;;;31.75;5.47;;;;;;;9.50;99.85;100751.47;5102177;28;20055;-57
2023/12/09 00:52:37;;;;;;;35.22;5.15;;;;;;;9.39;100.00;100741.78;5100019;28;20438;-54
2023/12/09 00:55:05;;;;;;;24.70;4.72;;;;;;;9.38;100.00;100746.44;5074785;28;20060;-53
2023/12/09 00:57:33;;;;;;;35.38;5.47;;;;;;;9.44;99.69;100750.75;5079707;28;20079;-57
2023/12/09 01:00:00;;;;;;;20.92;4.57;;;;;;;9.45;99.93;100755.09;5090931;28;20088;-54
2023/12/09 01:02:31;;;;;;;25.33;5.25;;;;;;;9.19;100.00;100750.44;5072390;28;20036;-55
2023/12/09 01:04:58;;;;;;;28.38;5.43;;;;;;;9.28;100.00;100745.84;5103690;28;20054;-56
2023/12/09 01:07:25;;;;;;;28.98;5.32;;;;;;;9.34;100.00;100742.69;5077995;28;20048;-54
2023/12/09 01:09:53;;;;;;;31.70;5.70;;;;;;;9.28;100.00;100734.84;5098883;28;20046;-56
2023/12/09 01:12:21;;;;;;;25.50;6.00;;;;;;;9.25;100.00;100729.97;5111589;28;20142;-58
2023/12/09 01:14:49;;;;;;;33.20;5.28;;;;;;;9.26;100.00;100732.41;5089423;28;20044;-55
2023/12/09 01:17:16;;;;;;;30.88;5.70;;;;;;;9.21;100.00;100737.16;5067103;28;20048;-55
2023/12/09 01:19:43;;;;;;;28.85;6.25;;;;;;;9.42;100.00;100744.72;5071707;28;20077;-56
2023/12/09 01:22:14;;;;;;;30.73;6.03;;;;;;;9.23;100.00;100745.94;5072961;28;20051;-58
2023/12/09 01:24:45;;;;;;;35.20;6.30;;;;;;;9.24;100.00;100740.13;5102421;28;20064;-55
2023/12/09 01:27:29;;;;;;;25.70;5.40;;;;;;;9.13;100.00;100750.50;5107733;28;20048;-58
2023/12/09 01:30:06;;;;;;;24.67;6.55;;;;;;;9.08;100.00;100758.03;5078780;28;20043;-56
2023/12/09 01:32:34;;;;;;;35.65;6.93;;;;;;;9.18;100.00;100746.03;5111087;28;20047;-57
2023/12/09 01:35:02;;;;;;;24.70;5.28;;;;;;;9.13;100.00;100744.22;5079124;28;20048;-58
2023/12/09 01:37:29;;;;;;;28.90;6.18;;;;;;;9.06;100.00;100741.88;5081091;28;20040;-54
2023/12/09 01:39:56;;;;;;;29.75;6.13;;;;;;;9.23;100.00;100748.69;5108034;28;20058;-54
2023/12/09 01:42:24;;;;;;;31.02;6.10;;;;;;;9.13;100.00;100739.50;5092630;28;20070;-57
2023/12/09 01:44:52;;;;;;;32.35;5.85;;;;;;;9.18;100.00;100744.09;5092805;28;20483;-57
2023/12/09 01:47:20;;;;;;;39.95;7.07;;;;;;;9.10;100.00;100742.03;5097102;28;20058;-56
2023/12/09 01:49:47;;;;;;;29.48;6.20;;;;;;;9.15;100.00;100735.66;5100924;28;20472;-56
2023/12/09 01:52:15;;;;;;;25.25;6.30;;;;;;;9.17;100.00;100728.72;5096866;28;20056;-59
2023/12/09 01:54:42;;;;;;;31.75;6.20;;;;;;;9.15;100.00;100730.16;5096058;28;20043;-56
2023/12/09 01:57:10;;;;;;;29.00;5.97;;;;;;;9.25;100.00;100724.47;5091726;28;20056;-57
2023/12/09 01:59:37;;;;;;;35.65;6.00;;;;;;;9.25;100.00;100732.69;5101911;28;20384;-53
2023/12/09 02:02:06;;;;;;;31.40;6.82;;;;;;;9.13;100.00;100718.66;5095872;28;20062;-55
2023/12/09 02:04:33;;;;;;;31.08;6.70;;;;;;;9.25;100.00;100716.22;5095616;28;20043;-55
2023/12/09 02:07:01;;;;;;;34.90;7.03;;;;;;;9.19;100.00;100707.25;5092084;28;20048;-56
2023/12/09 02:09:28;;;;;;;36.88;6.72;;;;;;;9.12;100.00;100711.53;5091953;28;20047;-59
2023/12/09 02:12:06;;;;;;;33.50;6.53;;;;;;;9.07;100.00;100701.44;5092335;28;20048;-59
2023/12/09 02:14:48;;;;;;;29.00;6.80;;;;;;;9.01;100.00;100686.19;5072083;28;20055;-59
2023/12/09 02:17:35;;;;;;;31.38;6.88;;;;;;;9.11;100.00;100680.50;5081435;28;20079;-60
2023/12/09 02:20:03;;;;;;;24.48;5.88;;;;;;;8.95;100.00;100677.22;5062178;28;20052;-58
2023/12/09 02:22:30;;;;;;;32.13;6.55;;;;;;;9.05;100.00;100670.69;5059141;28;20579;-57
2023/12/09 02:24:57;;;;;;;35.47;6.57;;;;;;;9.09;100.00;100666.25;5085797;28;20055;-58
2023/12/09 02:27:30;;;;;;;37.35;6.20;;;;;;;9.12;100.00;100664.81;5090300;28;20075;-59
2023/12/09 02:30:19;;;;;;;35.78;6.93;;;;;;;9.09;100.00;100661.56;5091154;28;20667;-58
2023/12/09 02:32:47;;;;;;;24.40;6.72;;;;;;;9.13;100.00;100657.06;5112966;28;20054;-61
2023/12/09 02:35:15;;;;;;;29.50;6.00;;;;;;;9.12;100.00;100651.88;5093161;28;20055;-58
2023/12/09 02:37:44;;;;;;;30.65;6.30;;;;;;;9.17;100.00;100646.28;5059526;28;20056;-60
2023/12/09 02:40:14;;;;;;;25.42;6.20;;;;;;;9.00;100.00;100640.59;5104591;28;20058;-58
2023/12/09 02:42:42;;;;;;;37.08;7.28;;;;;;;9.02;100.00;100650.16;5094970;28;20051;-57
2023/12/09 02:45:11;;;;;;;29.60;7.65;;;;;;;9.04;100.00;100645.19;5114008;28;20390;-58
2023/12/09 02:47:39;;;;;;;27.23;6.72;;;;;;;9.17;100.00;100638.03;5079189;28;20059;-61
2023/12/09 02:50:09;;;;;;;;;;;;;;;9.23;100.00;100636.81;5112579;28;20124;-61
2023/12/09 02:52:40;;;;;;;33.20;7.88;;;;;;;9.03;100.00;100637.25;5112700;28;20499;-58
2023/12/09 02:55:11;;;;;;;26.55;6.72;;;;;;;8.90;100.00;100633.38;5076821;28;20051;-61
2023/12/09 02:57:38;;;;;;;25.00;6.45;;;;;;;8.93;100.00;100635.50;5083327;28;20501;-60
2023/12/09 03:00:09;;;;;;;37.65;7.57;;;;;;;9.00;100.00;100627.69;5081381;28;20056;-60
2023/12/09 03:02:36;;;;;;;30.10;6.95;;;;;;;9.05;100.00;100624.00;5074860;28;20056;-56
2023/12/09 03:05:04;;;;;;;26.23;7.30;;;;;;;9.16;100.00;100616.38;5076621;28;20055;-58
2023/12/09 03:07:32;;;;;;;31.25;7.88;;;;;;;9.10;100.00;100616.47;5079490;28;20040;-59
2023/12/09 03:10:00;;;;;;;21.45;6.90;;;;;;;9.03;100.00;100605.06;5087708;28;20052;-59
2023/12/09 03:12:27;;;;;;;35.35;7.53;;;;;;;9.15;100.00;100592.75;5093086;28;20056;-57
2023/12/09 03:14:54;;;;;;;28.33;7.03;;;;;;;9.10;100.00;100586.25;5112867;28;20047;-59
2023/12/09 03:17:22;;;;;;;28.38;7.00;;;;;;;9.15;100.00;100585.34;5077316;28;20061;-59
2023/12/09 03:19:49;;;;;;;23.63;6.57;;;;;;;9.13;100.00;100582.09;5104644;28;20051;-59
2023/12/09 03:22:17;;;;;;;27.15;7.28;;;;;;;9.32;100.00;100565.47;5094361;28;20032;-58
2023/12/09 03:24:47;;;;;;;;;;;;;;;9.57;100.00;100565.69;5110359;28;20052;-60
2023/12/09 03:27:15;;;;;;;27.63;7.43;;;;;;;9.30;100.00;100563.03;5085624;28;19935;-61
2023/12/09 03:29:43;;;;;;;34.03;7.72;;;;;;;9.34;100.00;100561.28;5102604;28;20065;-58
2023/12/09 03:32:15;;;;;;;30.63;7.20;;;;;;;9.20;100.00;100546.75;5088824;28;20043;-60
2023/12/09 03:34:44;;;;;;;33.15;7.70;;;;;;;9.04;100.00;100545.47;5102887;28;20062;-60
2023/12/09 03:37:12;;;;;;;33.35;7.60;;;;;;;9.08;100.00;100558.25;5105071;27;20739;-55
2023/12/09 03:39:43;;;;;;;36.05;7.75;;;;;;;9.03;100.00;100552.09;5059127;28;20039;-60
2023/12/09 03:42:11;;;;;;;32.05;8.00;;;;;;;8.94;100.00;100540.97;5075354;28;20087;-61
2023/12/09 03:44:39;;;;;;;28.67;8.05;;;;;;;8.96;100.00;100538.75;5065581;28;20063;-55
2023/12/09 03:47:16;;;;;;;34.40;6.82;;;;;;;9.02;100.00;100529.28;5085493;28;20048;-55
2023/12/09 03:49:58;;;;;;;37.65;7.53;;;;;;;9.05;100.00;100520.41;5093002;28;20567;-57
2023/12/09 03:52:34;;;;;;;33.75;8.43;;;;;;;9.05;100.00;100514.09;5110965;28;20059;-59
2023/12/09 03:55:09;;;;;;;34.05;7.28;;;;;;;8.93;100.00;100503.66;5076294;28;20514;-54
2023/12/09 03:57:53;;;;;;;35.28;8.85;;;;;;;8.89;100.00;100504.59;5085200;28;20043;-58
2023/12/09 04:00:23;;;;;;;31.17;8.43;;;;;;;8.90;100.00;100506.19;5083982;28;20074;-55
2023/12/09 04:02:51;;;;;;;37.08;8.60;;;;;;;8.86;100.00;100507.94;5094428;28;20052;-53
2023/12/09 04:05:18;;;;;;;31.40;8.63;;;;;;;8.94;100.00;100496.25;5089375;28;20055;-55
2023/12/09 04:07:45;;;;;;;29.92;8.00;;;;;;;9.04;100.00;100491.34;5100103;28;20059;-57
2023/12/09 04:10:12;;;;;;;28.52;8.35;;;;;;;9.03;100.00;100492.44;5085309;28;20069;-58
2023/12/09 04:12:40;;;;;;;29.35;7.18;;;;;;;8.88;100.00;100475.47;5077086;28;20060;-58
2023/12/09 04:15:08;;;;;;;41.55;8.13;;;;;;;8.89;100.00;100475.16;5083662;28;20058;-58
2023/12/09 04:17:36;;;;;;;38.13;7.68;;;;;;;8.93;100.00;100481.69;5073783;28;20062;-57
2023/12/09 04:20:07;;;;;;;22.77;6.50;;;;;;;8.97;100.00;100468.16;5105497;28;20410;-58
2023/12/09 04:22:38;;;;;;;23.73;7.20;;;;;;;8.86;100.00;100466.72;5092988;28;20048;-56
2023/12/09 04:25:06;;;;;;;35.38;7.47;;;;;;;9.02;100.00;100459.78;5075835;28;20516;-59
2023/12/09 04:27:34;;;;;;;24.58;6.60;;;;;;;9.04;100.00;100457.53;5104041;28;20047;-54
2023/12/09 04:30:04;;;;;;;27.70;6.63;;;;;;;9.19;100.00;100467.38;5096588;28;20048;-58
2023/12/09 04:32:31;;;;;;;26.45;6.85;;;;;;;9.09;100.00;100461.00;5103240;28;20443;-56
2023/12/09 04:34:59;;;;;;;27.63;6.95;;;;;;;9.26;100.00;100454.81;5099200;28;20121;-59
2023/12/09 04:37:29;;;;;;;37.90;7.13;;;;;;;9.34;100.00;100453.28;5090202;27;20056;-51
2023/12/09 04:39:56;;;;;;;26.33;5.97;;;;;;;9.47;100.00;100455.97;5059787;28;20618;-55
2023/12/09 04:42:23;;;;;;;24.23;5.50;;;;;;;9.24;100.00;100446.06;5098756;28;20059;-56
2023/12/09 04:44:51;;;;;;;25.50;5.85;;;;;;;9.30;100.00;100441.28;5081989;28;20055;-53
2023/12/09 04:47:19;;;;;;;19.73;5.35;;;;;;;9.24;100.00;100437.03;5073394;28;20059;-58
2023/12/09 04:49:46;;;;;;;33.05;6.25;;;;;;;9.13;100.00;100419.97;5078878;28;20070;-60
2023/12/09 04:52:13;;;;;;;27.67;5.22;;;;;;;9.42;100.00;100425.03;5093157;28;20039;-62
2023/12/09 04:54:41;;;;;;;25.90;5.55;;;;;;;9.46;100.00;100406.78;5108511;28;20039;-59
2023/12/09 04:57:08;;;;;;;23.13;6.10;;;;;;;9.38;100.00;100421.31;5066561;28;20059;-55
2023/12/09 04:59:35;;;;;;;27.08;5.40;;;;;;;9.49;100.00;100422.66;5094884;28;20055;-56
2023/12/09 05:02:03;;;;;;;21.40;4.93;;;;;;;9.49;100.00;100426.22;5093295;28;20051;-57
2023/12/09 05:04:30;;;;;;;27.27;5.40;;;;;;;9.54;100.00;100420.59;5102929;28;20052;-59
2023/12/09 05:06:57;;;;;;;25.45;5.43;;;;;;;9.46;100.00;100415.84;5102819;27;20055;-57
2023/12/09 05:09:25;;;;;;;25.65;5.05;;;;;;;9.43;100.00;100410.19;5085069;28;20054;-63
2023/12/09 05:11:52;;;;;;;21.35;4.93;;;;;;;9.37;100.00;100409.47;5093710;28;20048;-58
2023/12/09 05:14:20;;;;;;;27.67;5.03;;;;;;;9.32;100.00;100395.06;5080878;28;20462;-55
2023/12/09 05:16:47;;;;;;;26.08;5.30;;;;;;;9.41;100.00;100393.19;5111277;28;20435;-55
2023/12/09 05:19:14;;;;;;;28.13;5.32;;;;;;;9.47;100.00;100394.66;5111122;28;20073;-56
2023/12/09 05:21:42;;;;;;;26.05;4.90;;;;;;;9.58;100.00;100376.78;5092803;28;20059;-55
2023/12/09 05:24:09;;;;;;;21.00;5.10;;;;;;;9.34;100.00;100376.31;5073475;28;20518;-56
2023/12/09 05:26:36;;;;;;;26.13;4.68;;;;;;;9.53;100.00;100374.16;5110069;28;20059;-54
2023/12/09 05:29:04;;;;;;;27.13;4.47;;;;;;;9.23;100.00;100375.75;5076181;28;20043;-56
2023/12/09 05:31:31;;;;;;;21.35;4.85;;;;;;;9.17;100.00;100370.72;5097360;28;20066;-58
2023/12/09 05:33:58;;;;;;;19.98;4.30;;;;;;;9.28;100.00;100342.66;5077242;28;20059;-57
2023/12/09 05:36:26;;;;;;;26.27;4.82;;;;;;;9.36;100.00;100338.34;5107564;28;20047;-57
2023/12/09 05:38:53;;;;;;;27.92;4.72;;;;;;;9.38;100.00;100338.84;5098176;28;20055;-56
2023/12/09 05:41:21;;;;;;;25.85;4.95;;;;;;;9.35;100.00;100329.28;5024428;28;20067;-54
2023/12/09 05:43:48;;;;;;;25.90;4.90;;;;;;;9.37;100.00;100332.53;5089726;28;20055;-57
2023/12/09 05:46:20;;;;;;;27.17;5.15;;;;;;;9.43;100.00;100324.97;5104865;28;20051;-53
2023/12/09 05:48:47;;;;;;;24.23;4.50;;;;;;;9.54;100.00;100307.88;5078213;28;20047;-55
2023/12/09 05:51:15;;;;;;;24.55;5.60;;;;;;;9.32;100.00;100307.09;5093007;28;20048;-53
2023/12/09 05:53:43;;;;;;;25.83;4.50;;;;;;;9.36;100.00;100299.84;5100942;28;20521;-53
2023/12/09 05:56:11;;;;;;;22.92;4.50;;;;;;;9.47;100.00;100293.75;5109539;28;20411;-54
2023/12/09 05:58:39;;;;;;;20.98;4.20;;;;;;;9.59;100.00;100290.44;5093541;28;20040;-54
2023/12/09 06:01:07;;;;;;;14.77;3.72;;;;;;;9.51;100.00;100277.44;5103932;28;20047;-57
2023/12/09 06:03:34;;;;;;;21.73;4.72;;;;;;;9.55;100.00;100279.25;5105415;28;20044;-57
2023/12/09 06:06:02;;;;;;;23.90;4.70;;;;;;;9.55;100.00;100275.69;5080110;28;20056;-58
2023/12/09 06:08:30;;;;;;;21.75;4.30;;;;;;;9.46;100.00;100272.09;5057369;28;20055;-59
2023/12/09 06:10:57;;;;;;;21.80;3.70;;;;;;;9.44;100.00;100266.91;5091537;28;20052;-60
2023/12/09 06:13:24;;;;;;;18.80;4.35;;;;;;;9.53;100.00;100258.69;5091814;28;20063;-59
2023/12/09 06:15:52;;;;;;;21.58;4.63;;;;;;;9.60;100.00;100261.81;5099025;28;20054;-58
2023/12/09 06:18:19;;;;;;;28.55;4.78;;;;;;;9.61;100.00;100260.66;5079112;28;20040;-59
2023/12/09 06:20:46;;;;;;;17.88;3.55;;;;;;;9.47;100.00;100254.44;5089193;28;20720;-58
2023/12/09 06:23:13;;;;;;;19.95;4.32;;;;;;;9.56;100.00;100238.81;5074868;28;20044;-58
2023/12/09 06:25:41;;;;;;;14.95;3.92;;;;;;;9.46;100.00;100233.59;5076973;28;20044;-60
2023/12/09 06:28:08;;;;;;;21.92;4.35;;;;;;;9.70;100.00;100218.31;5110645;28;20055;-58
2023/12/09 06:30:35;;;;;;;18.70;3.72;;;;;;;9.65;100.00;100217.66;5099275;28;20427;-60
2023/12/09 06:33:03;;;;;;;19.58;3.80;;;;;;;9.46;100.00;100211.63;5081111;28;20047;-59
2023/12/09 06:35:30;;;;;;;21.35;3.78;;;;;;;9.62;100.00;100202.63;5086703;28;20051;-58
2023/12/09 06:37:57;;;;;;;22.85;4.38;;;;;;;9.66;100.00;100198.09;5104728;27;20546;-57
2023/12/09 06:40:25;;;;;;;14.60;3.38;;;;;;;9.74;100.00;100199.25;5105803;28;20040;-58
2023/12/09 06:42:52;;;;;;;18.30;3.60;;;;;;;9.67;100.00;100182.41;5093399;28;20392;-58
2023/12/09 06:45:19;;;;;;;18.73;3.83;;;;;;;9.70;100.00;100181.75;5079460;28;20057;-57
2023/12/09 06:47:47;;;;;;;17.17;3.70;;;;;;;9.64;100.00;100170.09;5086739;28;20059;-59
2023/12/09 06:50:15;;;;;;;14.05;3.03;;;;;;;9.66;100.00;100167.06;5077942;28;20051;-59
2023/12/09 06:52:42;;;;;;;12.32;3.30;;;;;;;9.47;100.00;100152.75;5107166;28;20059;-57
2023/12/09 06:55:09;;;;;;;15.35;3.40;;;;;;;9.66;100.00;100164.31;5077021;28;20056;-61
2023/12/09 06:57:37;;;;;;;16.65;3.20;;;;;;;9.69;100.00;100158.16;5107564;28;20051;-59
2023/12/09 07:00:07;;;;;;;15.15;3.05;;;;;;;9.79;100.00;100163.34;5099061;28;20072;-59
2023/12/09 07:02:36;;;;;;;21.90;3.70;;;;;;;9.66;100.00;100156.84;5111415;28;20055;-56
2023/12/09 07:05:19;;;;;;;12.65;2.92;;;;;;;9.54;100.00;100148.41;5106142;28;20043;-57
2023/12/09 07:07:48;;;;;;;14.52;3.20;;;;;;;9.49;100.00;100145.00;5106414;27;20051;-60
2023/12/09 07:10:16;;;;;;;12.18;3.15;;;;;;;9.59;100.00;100136.47;5089853;28;20075;-60
2023/12/09 07:12:43;;;;;;;14.02;3.20;;;;;;;9.58;100.00;100123.84;5110467;28;20056;-58
2023/12/09 07:15:13;;;;;;;11.60;3.28;;;;;;;9.63;100.00;100104.44;5071690;28;20082;-58
2023/12/09 07:17:41;;;;;;;12.40;3.33;;;;;;;9.57;100.00;100114.75;5110445;27;20059;-57
2023/12/09 07:20:09;;;;;;;15.25;2.72;;;;;;;9.53;100.00;100111.06;5113334;28;20047;-59
2023/12/09 07:22:37;;;;;;;15.20;3.25;;;;;;;9.62;100.00;100113.81;5106970;28;20046;-59
2023/12/09 07:25:04;;;;;;;16.60;3.83;;;;;;;9.54;100.00;100090.66;5107606;28;20036;-59
2023/12/09 07:27:32;;;;;;;17.23;3.70;;;;;;;9.62;100.00;100087.13;5065854;28;20062;-58
2023/12/09 07:30:00;;;;;;;11.38;2.80;;;;;;;9.70;100.00;100088.25;5093796;28;20079;-60
2023/12/09 07:32:28;;;;;;;12.80;3.10;;;;;;;9.71;100.00;100101.69;5111182;28;20379;-57
2023/12/09 07:34:55;;;;;;;14.80;3.28;;;;;;;9.51;100.00;100102.31;5096976;28;20048;-57
2023/12/09 07:37:23;;;;;;;14.23;3.63;;;;;;;9.56;100.00;100115.91;5099320;28;20059;-60
2023/12/09 07:39:51;;;;;;;14.38;3.08;;;;;;;9.72;100.00;100103.31;5099419;28;20051;-58
2023/12/09 07:42:18;;;;;;;12.00;3.03;;;;;;;9.78;100.00;100091.00;5092663;28;20052;-60
2023/12/09 07:44:46;;;;;;;16.15;3.50;;;;;;;9.76;100.00;100078.72;5112213;28;20047;-59
2023/12/09 07:47:13;;;;;;;15.15;3.55;;;;;;;9.63;100.00;100063.19;5112083;28;20047;-59
2023/12/09 07:49:42;;;;;;;11.05;2.80;;;;;;;9.67;100.00;100064.16;5094807;28;20043;-62
2023/12/09 07:52:09;;;;;;;17.50;3.03;;;;;;;9.82;100.00;100063.66;5110612;28;20059;-57
2023/12/09 07:54:37;;;;;;;10.52;2.90;;;;;;;9.87;100.00;100058.00;5089682;28;20044;-60
2023/12/09 07:57:04;;;;;;;10.95;2.67;;;;;;;9.84;100.00;100040.22;5096387;28;20043;-56
2023/12/09 07:59:32;;;;;;;12.70;2.95;;;;;;;9.83;100.00;100029.53;5112839;28;20048;-59
2023/12/09 08:01:59;;;;;;;13.63;2.92;;;;;;;9.75;100.00;100022.91;5096031;28;20056;-59
2023/12/09 08:04:26;;;;;;;10.55;2.53;;;;;;;9.59;100.00;99993.50;5105006;28;20165;-60
2023/12/09 08:06:54;;;;;;;11.82;2.40;;;;;;;9.39;100.00;99983.94;5108012;28;20047;-58
2023/12/09 08:09:21;;;;;;;11.85;2.63;;;;;;;9.65;100.00;99975.69;5085174;28;20055;-58
2023/12/09 08:11:48;;;;;;;10.68;2.47;;;;;;;9.60;100.00;99956.63;5092127;28;20306;-56
2023/12/09 08:14:19;;;;;;;11.40;2.50;;;;;;;9.68;100.00;99926.34;5112179;28;20451;-60
2023/12/09 08:16:47;;;;;;;11.07;2.75;;;;;;;9.60;100.00;99907.13;5112100;28;20048;-59
2023/12/09 08:19:14;;;;;;;7.80;2.10;;;;;;;9.55;100.00;99902.63;5104628;28;20056;-58
2023/12/09 08:21:41;;;;;;;9.18;2.40;;;;;;;9.64;100.00;99899.84;5089579;28;20055;-59
2023/12/09 08:24:09;;;;;;;9.85;2.97;;;;;;;9.68;100.00;99893.34;5109521;28;20039;-59
2023/12/09 08:26:37;;;;;;;11.45;2.17;;;;;;;9.69;100.00;99894.94;5108880;28;20079;-57
2023/12/09 08:29:04;;;;;;;12.48;2.30;;;;;;;9.73;100.00;99882.16;5112616;28;20047;-60
2023/12/09 08:31:32;;;;;;;12.63;2.80;;;;;;;9.75;100.00;99854.34;5094126;28;20043;-60
2023/12/09 08:33:59;;;;;;;8.77;1.90;;;;;;;9.73;100.00;99851.09;5080736;28;20062;-58
2023/12/09 08:36:27;;;;;;;11.95;2.65;;;;;;;9.93;100.00;99862.22;5103211;28;20043;-58
2023/12/09 08:38:54;;;;;;;12.07;2.33;;;;;;;9.71;100.00;99840.44;5091285;28;20054;-60
2023/12/09 08:41:22;;;;;;;8.30;2.13;;;;;;;9.61;100.00;99827.06;5081359;28;20067;-61
2023/12/09 08:43:51;;;;;;;7.50;1.90;;;;;;;9.64;100.00;99833.84;5110566;28;20051;-58
2023/12/09 08:46:18;;;;;;;10.05;2.13;;;;;;;9.75;100.00;99816.66;5076643;28;20047;-59
2023/12/09 08:48:46;;;;;;;11.48;2.83;;;;;;;9.97;100.00;99810.88;5111177;28;20593;-59
2023/12/09 08:51:13;;;;;;;10.98;2.20;;;;;;;10.02;100.00;99768.66;5110417;28;20043;-60
2023/12/09 08:53:41;;;;;;;8.02;2.22;;;;;;;10.05;100.00;99785.28;5105688;28;20078;-59
2023/12/09 08:56:08;;;;;;;5.70;1.83;;;;;;;9.92;100.00;99777.28;5107716;28;20047;-57
2023/12/09 08:58:35;;;;;;;8.50;2.22;;;;;;;9.84;100.00;99750.63;5111001;28;20059;-57
2023/12/09 09:01:02;;;;;;;6.25;1.90;;;;;;;9.93;100.00;99724.69;5090933;28;20047;-61
2023/12/09 09:03:30;;;;;;;8.27;1.80;;;;;;;9.74;100.00;99724.31;5107841;28;20039;-59
2023/12/09 09:05:58;;;;;;;16.70;2.20;;;;;;;9.62;100.00;99710.47;5098592;28;20444;-55
2023/12/09 09:08:25;;;;;;;7.85;1.58;;;;;;;9.56;100.00;99731.03;5073050;28;20044;-55
2023/12/09 09:10:52;;;;;;;6.10;1.70;;;;;;;9.73;100.00;99730.94;5111947;28;20051;-57
2023/12/09 09:13:20;;;;;;;8.35;2.00;;;;;;;9.72;100.00;99712.03;5106575;28;20063;-60
2023/12/09 09:15:48;;;;;;;6.10;1.73;;;;;;;9.79;100.00;99677.38;5090041;28;20068;-62
2023/12/09 09:18:15;;;;;;;6.82;1.60;;;;;;;9.67;100.00;99681.97;5076992;28;20047;-58
2023/12/09 09:20:43;;;;;;;6.28;1.65;;;;;;;9.98;100.00;99699.72;5099836;28;20542;-59
2023/12/09 09:23:11;;;;;;;7.70;1.67;;;;;;;9.88;100.00;99699.31;5056780;28;20540;-56
2023/12/09 09:25:38;;;;;;;5.32;1.67;;;;;;;10.00;100.00;99704.91;5108811;28;20058;-55
2023/12/09 09:28:05;;;;;;;7.82;1.80;;;;;;;10.17;100.00;99699.28;5095231;28;20062;-57
2023/12/09 09:30:32;;;;;;;4.75;1.70;;;;;;;10.17;100.00;99696.53;5073056;28;20055;-57
2023/12/09 09:33:00;;;;;;;5.00;1.20;;;;;;;10.09;100.00;99694.66;5091326;28;20047;-53
2023/12/09 09:35:27;;;;;;;6.90;1.48;;;;;;;10.21;100.00;99686.47;5102024;28;20470;-55
2023/12/09 09:37:55;;;;;;;5.95;1.30;;;;;;;10.16;100.00;99689.44;5105326;28;20048;-53
2023/12/09 09:40:22;;;;;;;6.03;1.45;;;;;;;10.12;100.00;99683.81;5102109;28;20048;-55
2023/12/09 09:42:56;;;;;;;6.38;1.40;;;;;;;10.15;100.00;99665.78;5110626;28;20402;-56
2023/12/09 09:45:25;;;;;;;6.07;1.55;;;;;;;10.17;100.00;99686.34;5085807;28;20674;-58
2023/12/09 09:48:06;;;;;;;4.40;1.27;;;;;;;10.27;100.00;99671.34;5108401;28;20039;-57
2023/12/09 09:50:40;;;;;;;8.02;2.75;;;;;;;10.14;100.00;99658.69;5106608;28;20040;-57
2023/12/09 09:53:08;;;;;;;7.22;1.70;;;;;;;10.26;100.00;99639.50;5083513;28;20056;-54
2023/12/09 09:55:39;;;;;;;5.05;1.30;;;;;;;10.27;100.00;99646.59;5073110;28;20047;-56
2023/12/09 09:58:07;;;;;;;3.78;1.33;;;;;;;10.51;100.00;99649.47;5101018;28;20043;-58
2023/12/09 10:00:34;;;;;;;7.35;1.42;;;;;;;10.35;100.00;99648.47;5086243;28;20406;-57
2023/12/09 10:03:02;;;;;;;4.38;1.67;;;;;;;10.43;100.00;99627.50;5103496;28;20078;-59
2023/12/09 10:05:30;;;;;;;4.90;1.10;;;;;;;10.52;100.00;99623.53;5088441;28;20052;-61
2023/12/09 10:07:58;;;;;;;7.68;1.83;;;;;;;10.45;100.00;99605.94;5108424;28;20043;-60
2023/12/09 10:10:26;;;;;;;5.07;1.25;;;;;;;10.33;100.00;99598.47;5081792;28;20039;-62
2023/12/09 10:12:53;;;;;;;5.30;1.42;;;;;;;10.46;100.00;99600.09;5093480;28;20494;-59
2023/12/09 10:15:21;;;;;;;4.20;1.20;;;;;;;10.44;100.00;99599.66;5091471;28;20036;-59
2023/12/09 10:17:49;;;;;;;4.88;1.27;;;;;;;10.45;100.00;99595.75;5089389;28;20042;-59
2023/12/09 10:20:16;;;;;;;3.30;1.27;;;;;;;11.08;100.00;99577.84;5057573;28;20052;-60
2023/12/09 10:22:46;;;;;;;6.05;1.42;;;;;;;11.64;100.00;99573.31;5115087;28;20050;-61
2023/12/09 10:25:22;;;;;;;2.97;1.02;;;;;;;11.99;100.00;99569.69;5095891;28;20043;-62
2023/12/09 10:27:50;;;;;;;3.83;0.85;;;;;;;12.35;100.00;99563.19;5105645;28;20044;-62
2023/12/09 10:30:18;;;;;;;2.22;0.70;;;;;;;12.16;100.00;99554.75;5113781;28;20067;-60
2023/12/09 10:32:49;;;;;;;3.08;1.10;;;;;;;11.72;100.00;99547.56;5076650;28;20048;-61
2023/12/09 10:35:18;;;;;;;3.70;0.90;;;;;;;11.71;100.00;99554.25;5062254;28;20055;-63
2023/12/09 10:38:10;;;;;;;4.45;0.57;;;;;;;11.54;100.00;99530.44;5106611;28;20063;-61
2023/12/09 10:40:37;;;;;;;1.73;0.63;;;;;;;11.65;100.00;99539.06;5103321;28;20058;-62
2023/12/09 10:43:04;;;;;;;3.00;0.93;;;;;;;11.63;100.00;99538.59;5106088;28;20039;-62
2023/12/09 10:45:32;;;;;;;2.13;0.90;;;;;;;11.73;100.00;99527.91;5079084;28;20043;-61
2023/12/09 10:48:00;;;;;;;6.03;1.05;;;;;;;11.83;100.00;99524.66;5084397;28;20459;-60
2023/12/09 10:50:28;;;;;;;5.10;0.85;;;;;;;11.99;100.00;99527.47;5108527;28;20395;-62
2023/12/09 10:52:56;;;;;;;2.95;1.23;;;;;;;11.77;100.00;99517.78;5111894;28;20039;-61
2023/12/09 10:55:24;;;;;;;2.55;1.00;;;;;;;11.88;100.00;99501.53;5105260;28;20063;-64
2023/12/09 10:57:51;;;;;;;3.05;1.10;;;;;;;11.95;100.00;99498.97;5093197;28;20048;-61
2023/12/09 11:00:19;;;;;;;2.50;1.10;;;;;;;11.90;100.00;99504.75;5091317;28;20048;-60
2023/12/09 11:02:47;;;;;;;7.55;3.00;;;;;;;11.95;100.00;99468.59;5104669;28;20055;-61
2023/12/09 11:05:15;;;;;;;4.38;1.20;;;;;;;12.05;100.00;99503.97;5067307;28;20060;-59
2023/12/09 11:07:44;;;;;;;1.23;0.60;;;;;;;11.97;100.00;99466.31;5090988;28;20446;-61
2023/12/09 11:10:12;;;;;;;1.02;0.60;;;;;;;11.83;100.00;99463.97;5092336;28;20487;-61
2023/12/09 11:12:42;;;;;;;3.17;0.73;;;;;;;11.93;100.00;99484.72;5085955;28;20054;-62
2023/12/09 11:15:13;;;;;;;6.63;4.15;;;;;;;11.95;100.00;99452.06;5089702;28;20044;-59
2023/12/09 11:17:43;;;;;;;4.47;1.70;;;;;;;12.23;100.00;99448.09;5101228;28;20125;-62
2023/12/09 11:20:15;;;;;;;6.20;3.15;;;;;;;12.28;100.00;99434.03;5085628;27;20062;-61
2023/12/09 11:22:44;;;;;;;2.00;0.98;;;;;;;12.36;100.00;99412.94;5110526;28;20657;-61
2023/12/09 11:25:22;;;;;;;1.58;0.70;;;;;;;12.38;100.00;99413.34;5093037;28;20059;-60
2023/12/09 11:28:16;;;;;;;1.50;0.80;;;;;;;12.47;100.00;99427.78;5069119;28;20052;-61